Weather at Cumberland House Airport

Public forecast

Using degrees Celsius for public forecast. Weather courtesy of forecast.io.

Closest aviation weather report (METAR) to Cumberland House Airport

Closest report is The Pas Airport, 42.6 nm (79.0 km) E. Retrieved 2020/11/30 01:00 UTC (2 minutes ago):

CYQD 300100Z AUTO 14011KT 9SM BKN240 M13/M15 A3008 RMK SLP217

Closest aviation forecast (TAF) to Cumberland House Airport

Closest forecast is The Pas Airport, 42.6 nm (79.0 km) E. Retrieved 2020-11-30 01:42 UTC (0 seconds ago):

TAF CYQD 300038Z 3001/3013 14010KT P6SM SKC BECMG 3004/3006 18006KT RMK FCST BASED ON AUTO OBS NXT FCST BY 300700Z